Time;durP1;ratioP1;P1;durP2;ratioP2;P2;SDS_P1;SDS_P2;PMS_P1;PMS_P2;Temp;Humidity;BMP_temperature;BMP_pressure;BME280_temperature;BME280_humidity;BME280_pressure;Samples;Min_cycle;Max_cycle;Signal;HPM_P1;HPM_P2
2021/09/11 00:01:58;;;;;;;;;4.25;4.25;;;;;18.67;76.64;101480.50;4932446;28;45863;-75
2021/09/11 00:04:23;;;;;;;;;4.75;4.75;;;;;18.67;76.37;101496.56;4918882;28;45479;-75
2021/09/11 00:06:49;;;;;;;;;3.50;3.50;;;;;18.67;76.46;101501.91;4920810;28;45658;-75
2021/09/11 00:09:14;;;;;;;;;4.00;3.00;;;;;18.68;76.93;101496.34;4919163;28;45578;-75
2021/09/11 00:11:39;;;;;;;;;5.25;4.00;;;;;18.69;76.49;101506.06;4929871;28;46196;-75
2021/09/11 00:14:05;;;;;;;;;5.75;3.75;;;;;18.72;76.40;101504.00;4916959;28;45573;-74
2021/09/11 00:16:31;;;;;;;;;4.25;3.25;;;;;18.73;76.33;101505.69;4917898;28;45649;-74
2021/09/11 00:18:56;;;;;;;;;4.75;4.00;;;;;18.77;75.89;101507.84;4926315;28;45512;-75
2021/09/11 00:21:22;;;;;;;;;4.50;4.00;;;;;18.79;75.80;101499.63;4921711;28;46120;-74
2021/09/11 00:23:47;;;;;;;;;3.50;3.50;;;;;18.78;76.40;101495.28;4921784;28;45424;-74
2021/09/11 00:26:13;;;;;;;;;3.25;2.25;;;;;18.84;75.80;101502.56;4921956;28;45491;-75
2021/09/11 00:28:38;;;;;;;;;3.00;2.75;;;;;18.85;75.35;101497.03;4923552;28;45490;-75
2021/09/11 00:31:04;;;;;;;;;3.75;3.00;;;;;18.87;75.42;101495.00;4926747;28;46748;-75
2021/09/11 00:33:30;;;;;;;;;5.00;3.75;;;;;18.90;74.91;101491.13;4921270;28;45493;-74
2021/09/11 00:35:55;;;;;;;;;4.75;3.50;;;;;18.91;74.70;101492.78;4917133;28;45573;-74
2021/09/11 00:38:21;;;;;;;;;5.00;3.25;;;;;18.92;74.73;101499.81;4915694;28;45408;-74
2021/09/11 00:40:50;;;;;;;;;3.75;3.75;;;;;18.95;74.82;101494.06;4917349;28;46116;-75
2021/09/11 00:43:22;;;;;;;;;5.00;3.00;;;;;18.98;74.63;101499.06;4921565;28;45626;-75
2021/09/11 00:45:48;;;;;;;;;6.75;4.50;;;;;19.00;74.82;101496.19;4925867;28;45527;-74
2021/09/11 00:48:14;;;;;;;;;3.00;2.75;;;;;18.98;74.09;101488.34;4913166;28;45575;-74
2021/09/11 00:50:39;;;;;;;;;2.75;2.25;;;;;18.99;74.72;101490.03;4916462;28;46457;-74
2021/09/11 00:53:04;;;;;;;;;4.00;4.00;;;;;19.03;74.38;101490.47;4908783;28;45550;-74
2021/09/11 00:55:30;;;;;;;;;2.50;2.50;;;;;19.01;73.54;101492.50;4913296;28;45514;-75
2021/09/11 00:57:55;;;;;;;;;5.25;3.75;;;;;18.95;73.08;101485.22;4926359;28;45478;-74
2021/09/11 01:00:21;;;;;;;;;3.00;3.00;;;;;18.97;73.26;101496.56;4913102;28;45499;-74
2021/09/11 01:02:46;;;;;;;;;3.00;3.00;;;;;18.95;73.50;101494.06;4917942;28;45476;-74
2021/09/11 01:05:12;;;;;;;;;3.25;3.25;;;;;18.94;72.79;101494.25;4924088;28;45572;-74
2021/09/11 01:07:39;;;;;;;;;3.50;3.50;;;;;18.88;73.27;101493.16;4911969;28;45592;-74
2021/09/11 01:10:06;;;;;;;;;3.25;3.25;;;;;18.90;73.18;101504.53;4916362;28;45474;-74
2021/09/11 01:12:33;;;;;;;;;3.25;3.25;;;;;18.87;73.65;101496.88;4915424;28;45491;-74
2021/09/11 01:15:03;;;;;;;;;3.75;3.25;;;;;18.85;72.96;101509.59;4912430;28;45949;-74
2021/09/11 01:17:29;;;;;;;;;4.25;4.25;;;;;18.82;72.71;101509.97;4929895;28;45521;-75
2021/09/11 01:19:55;;;;;;;;;5.50;3.50;;;;;18.79;72.97;101518.34;4908887;28;45667;-75
2021/09/11 01:22:20;;;;;;;;;4.75;4.25;;;;;18.73;73.03;101514.53;4917120;28;45854;-74
2021/09/11 01:24:57;;;;;;;;;2.50;2.50;;;;;18.68;73.27;101509.75;4915099;28;45505;-74
2021/09/11 01:27:23;;;;;;;;;2.25;2.00;;;;;18.65;73.12;101517.31;4914897;28;45489;-74
2021/09/11 01:30:01;;;;;;;;;2.50;2.50;;;;;18.62;72.60;101509.63;4917194;28;46219;-75
2021/09/11 01:32:30;;;;;;;;;4.50;4.50;;;;;18.57;72.13;101512.88;4922494;28;45667;-74
2021/09/11 01:34:55;;;;;;;;;3.75;3.00;;;;;18.52;72.74;101509.94;4910944;28;45624;-74
2021/09/11 01:37:21;;;;;;;;;3.75;3.00;;;;;18.53;71.92;101519.63;4913036;28;45522;-75
2021/09/11 01:39:48;;;;;;;;;5.00;5.00;;;;;18.49;72.87;101515.63;4915039;28;46145;-74
2021/09/11 01:42:25;;;;;;;;;3.75;3.50;;;;;18.49;72.32;101518.31;4919737;28;45481;-75
2021/09/11 01:44:52;;;;;;;;;6.00;5.00;;;;;18.49;72.42;101518.31;4920123;28;45730;-74
2021/09/11 01:47:18;;;;;;;;;4.00;3.75;;;;;18.48;72.87;101514.81;4920608;28;45844;-75
2021/09/11 01:49:44;;;;;;;;;3.25;2.75;;;;;18.47;72.70;101521.19;4925989;28;46669;-74
2021/09/11 01:52:10;;;;;;;;;3.50;2.75;;;;;18.43;72.51;101519.88;4919664;28;45412;-75
2021/09/11 01:54:40;;;;;;;;;2.50;2.50;;;;;18.36;72.41;101516.25;4914565;28;45403;-74
2021/09/11 01:57:06;;;;;;;;;2.50;2.50;;;;;18.32;72.58;101520.28;4913262;28;45511;-75
2021/09/11 01:59:32;;;;;;;;;4.00;4.00;;;;;18.25;72.24;101509.50;4915752;28;53384;-74
2021/09/11 02:01:58;;;;;;;;;4.50;4.50;;;;;18.23;72.65;101521.41;4920116;28;45590;-75
2021/09/11 02:04:23;;;;;;;;;3.25;3.25;;;;;18.19;73.00;101510.22;4910723;28;45644;-75
2021/09/11 02:06:50;;;;;;;;;3.50;3.50;;;;;18.17;73.03;101512.22;4914166;28;45522;-75
2021/09/11 02:09:15;;;;;;;;;3.25;3.25;;;;;18.13;73.09;101510.13;4912656;28;45676;-74
2021/09/11 02:11:40;;;;;;;;;5.50;4.00;;;;;18.15;73.74;101514.28;4914589;28;45494;-75
2021/09/11 02:14:09;;;;;;;;;4.75;4.75;;;;;18.15;73.50;101519.63;4921490;28;45618;-74
2021/09/11 02:16:34;;;;;;;;;3.25;3.00;;;;;18.14;73.13;101525.16;4918597;28;45606;-74
2021/09/11 02:18:59;;;;;;;;;4.00;4.00;;;;;18.10;73.25;101522.03;4927051;28;45561;-74
2021/09/11 02:21:25;;;;;;;;;3.00;3.00;;;;;18.13;72.85;101528.84;4916405;28;45522;-74
2021/09/11 02:23:50;;;;;;;;;5.25;3.50;;;;;18.13;73.37;101532.34;4913889;28;45622;-75
2021/09/11 02:26:16;;;;;;;;;4.50;4.50;;;;;18.12;73.05;101519.97;4918876;28;45491;-74
2021/09/11 02:28:43;;;;;;;;;4.50;2.75;;;;;18.13;72.77;101527.00;4925101;28;45690;-75
2021/09/11 02:31:09;;;;;;;;;3.25;3.25;;;;;18.15;73.04;101524.97;4917689;28;45558;-75
2021/09/11 02:33:35;;;;;;;;;5.75;4.00;;;;;18.14;72.75;101528.66;4919045;28;45483;-75
2021/09/11 02:36:01;;;;;;;;;4.50;4.50;;;;;18.13;72.73;101527.00;4918062;28;45763;-75
2021/09/11 02:38:26;;;;;;;;;2.25;2.25;;;;;18.13;72.26;101523.50;5008845;28;46382;-75
2021/09/11 02:40:52;;;;;;;;;6.75;4.25;;;;;18.11;72.65;101517.50;4925470;28;47312;-75
2021/09/11 02:43:18;;;;;;;;;4.75;3.50;;;;;18.12;72.77;101517.28;4922654;28;45627;-74
2021/09/11 02:45:43;;;;;;;;;4.00;4.00;;;;;18.07;72.75;101518.84;4925984;28;45816;-75
2021/09/11 02:48:09;;;;;;;;;3.75;3.75;;;;;18.01;73.06;101507.03;4916142;28;45487;-75
2021/09/11 02:50:34;;;;;;;;;4.25;4.25;;;;;17.99;73.46;101512.56;4911616;28;45515;-75
2021/09/11 02:52:59;;;;;;;;;4.75;4.75;;;;;17.94;73.17;101511.44;4916686;28;45547;-74
2021/09/11 02:55:25;;;;;;;;;3.25;3.25;;;;;17.88;73.10;101506.78;4911695;28;47221;-74
2021/09/11 02:57:50;;;;;;;;;2.50;2.25;;;;;17.81;73.45;101512.88;4917247;28;46125;-74
2021/09/11 03:00:18;;;;;;;;;4.00;4.00;;;;;17.76;73.16;101507.19;4919433;28;45506;-74
2021/09/11 03:02:44;;;;;;;;;2.50;2.50;;;;;17.72;72.84;101502.38;4917441;28;45588;-74
2021/09/11 03:05:10;;;;;;;;;3.25;3.25;;;;;17.67;73.77;101502.91;4911312;28;45705;-75
2021/09/11 03:07:35;;;;;;;;;4.00;3.00;;;;;17.63;74.37;101509.63;4919168;28;45768;-75
2021/09/11 03:10:00;;;;;;;;;3.75;3.25;;;;;17.59;73.92;101508.31;4916372;28;45652;-74
2021/09/11 03:12:26;;;;;;;;;3.75;3.75;;;;;17.55;74.16;101513.16;4921039;28;45416;-74
2021/09/11 03:14:52;;;;;;;;;5.00;5.00;;;;;17.51;74.58;101511.88;4924556;28;45443;-74
2021/09/11 03:17:17;;;;;;;;;6.00;6.00;;;;;17.47;74.33;101509.72;4920194;28;52158;-75
2021/09/11 03:19:42;;;;;;;;;5.00;5.00;;;;;17.42;74.81;101502.22;4909164;28;47824;-74
2021/09/11 03:22:08;;;;;;;;;4.25;4.25;;;;;17.39;75.19;101508.75;4928781;28;45633;-75
2021/09/11 03:24:33;;;;;;;;;5.00;5.00;;;;;17.36;74.82;101503.78;4924812;28;45592;-74
2021/09/11 03:26:58;;;;;;;;;4.50;4.50;;;;;17.32;74.68;101507.78;4916975;28;45580;-75
2021/09/11 03:29:24;;;;;;;;;7.75;5.00;;;;;17.28;74.64;101511.81;4923099;28;45761;-75
2021/09/11 03:31:49;;;;;;;;;6.00;6.00;;;;;17.23;74.89;101513.34;4929610;28;45535;-74
2021/09/11 03:34:15;;;;;;;;;4.25;4.25;;;;;17.20;74.86;101510.00;4924563;28;45699;-75
2021/09/11 03:36:41;;;;;;;;;4.50;3.50;;;;;17.17;75.14;101515.72;4923633;28;46928;-74
2021/09/11 03:39:06;;;;;;;;;5.75;4.00;;;;;17.15;75.52;101516.88;4916805;28;45557;-74
2021/09/11 03:41:33;;;;;;;;;4.50;4.00;;;;;17.13;75.28;101511.72;4913357;28;45525;-74
2021/09/11 03:43:58;;;;;;;;;4.25;4.25;;;;;17.10;75.40;101516.56;4908542;28;45586;-74
2021/09/11 03:46:23;;;;;;;;;4.75;4.50;;;;;17.05;75.13;101517.09;4911696;28;50848;-74
2021/09/11 03:48:50;;;;;;;;;4.75;4.50;;;;;17.03;75.80;101511.09;4913244;28;45934;-75
2021/09/11 03:51:16;;;;;;;;;5.00;5.00;;;;;17.00;75.16;101511.44;4920788;28;45514;-74
2021/09/11 03:53:41;;;;;;;;;5.50;5.00;;;;;16.97;75.33;101511.78;4917669;28;45430;-75
2021/09/11 03:56:06;;;;;;;;;4.00;4.00;;;;;16.94;75.31;101515.63;4921491;28;46065;-75
2021/09/11 03:58:33;;;;;;;;;5.00;4.00;;;;;16.92;75.32;101517.63;4922689;28;45467;-74
2021/09/11 04:01:01;;;;;;;;;3.00;3.00;;;;;16.91;75.13;101516.00;4922453;28;45485;-75
2021/09/11 04:03:26;;;;;;;;;3.50;2.00;;;;;16.87;75.56;101517.31;4908014;28;45589;-74
2021/09/11 04:05:52;;;;;;;;;5.00;4.00;;;;;16.88;75.77;101523.50;4914459;28;45519;-75
2021/09/11 04:08:17;;;;;;;;;3.00;3.00;;;;;16.87;75.07;101524.50;4919255;28;45541;-74
2021/09/11 04:10:43;;;;;;;;;2.00;2.00;;;;;16.85;75.39;101524.66;4912965;28;45552;-75
2021/09/11 04:13:09;;;;;;;;;3.50;3.50;;;;;16.83;75.40;101531.19;4925579;28;45447;-74
2021/09/11 04:15:34;;;;;;;;;5.00;4.00;;;;;16.81;75.22;101531.34;4922117;28;46170;-74
2021/09/11 04:18:00;;;;;;;;;2.25;2.25;;;;;16.81;75.26;101539.34;4919411;28;45495;-74
2021/09/11 04:20:25;;;;;;;;;3.00;2.00;;;;;16.77;75.03;101530.84;4915460;28;45746;-76
2021/09/11 04:22:51;;;;;;;;;3.00;3.00;;;;;16.74;74.74;101527.66;4910668;28;45289;-74
2021/09/11 04:25:16;;;;;;;;;3.00;3.00;;;;;16.72;75.13;101527.03;4921939;28;46175;-74
2021/09/11 04:27:42;;;;;;;;;2.00;2.00;;;;;16.66;75.39;101525.00;4923730;28;45724;-73
2021/09/11 04:30:08;;;;;;;;;3.25;2.25;;;;;16.64;75.11;101527.00;4924337;28;45297;-73
2021/09/11 04:32:33;;;;;;;;;3.00;2.00;;;;;16.64;75.69;101530.53;4922731;28;45534;-73
2021/09/11 04:35:00;;;;;;;;;2.75;2.75;;;;;16.62;75.86;101531.72;4921276;28;45486;-74
2021/09/11 04:37:26;;;;;;;;;3.00;2.25;;;;;16.61;75.33;101533.53;4916413;28;45645;-75
2021/09/11 04:39:51;;;;;;;;;2.25;2.25;;;;;16.58;75.93;101531.22;4912870;28;45441;-74
2021/09/11 04:42:16;;;;;;;;;1.75;1.75;;;;;16.59;76.83;101532.03;4910594;28;45807;-73
2021/09/11 04:44:42;;;;;;;;;3.00;2.25;;;;;16.55;75.50;101528.88;4912201;28;46089;-75
2021/09/11 04:47:07;;;;;;;;;3.25;3.00;;;;;16.54;75.35;101536.06;4922371;28;45454;-76
2021/09/11 04:49:33;;;;;;;;;2.50;2.25;;;;;16.51;75.94;101528.38;4907475;28;45662;-76
2021/09/11 04:51:58;;;;;;;;;1.00;1.00;;;;;16.49;76.36;101533.06;4927633;28;45514;-75
2021/09/11 04:54:23;;;;;;;;;3.00;1.25;;;;;16.48;76.16;101533.22;4922440;28;46092;-75
2021/09/11 04:56:49;;;;;;;;;4.00;2.00;;;;;16.44;76.75;101527.38;4918756;28;45609;-76
2021/09/11 04:59:14;;;;;;;;;1.00;1.00;;;;;16.44;76.13;101539.88;4925980;28;45843;-75
2021/09/11 05:01:40;;;;;;;;;2.25;2.25;;;;;16.43;75.76;101532.91;4933887;28;45550;-75
2021/09/11 05:04:05;;;;;;;;;2.25;2.25;;;;;16.42;75.85;101540.06;4926877;28;45469;-73
2021/09/11 05:06:31;;;;;;;;;5.00;3.00;;;;;16.41;75.93;101537.56;4934003;28;45547;-75
2021/09/11 05:08:57;;;;;;;;;3.00;2.75;;;;;16.40;76.01;101542.06;4930447;28;45445;-76
2021/09/11 05:11:22;;;;;;;;;2.00;2.00;;;;;16.39;75.86;101534.22;4923526;28;45396;-76
2021/09/11 05:13:48;;;;;;;;;3.00;3.00;;;;;16.38;76.47;101544.06;4950209;28;46352;-76
2021/09/11 05:16:13;;;;;;;;;1.75;1.75;;;;;16.36;76.08;101539.91;4935393;28;48072;-76
2021/09/11 05:18:38;;;;;;;;;5.00;2.00;;;;;16.33;76.40;101546.41;4928615;28;45456;-76
2021/09/11 05:21:05;;;;;;;;;3.50;2.00;;;;;16.32;76.39;101548.25;4940797;28;45546;-76
2021/09/11 05:23:31;;;;;;;;;3.00;2.75;;;;;16.32;76.47;101547.44;4934831;28;46183;-76
2021/09/11 05:25:58;;;;;;;;;2.00;2.00;;;;;16.33;76.62;101546.41;4924793;28;45573;-76
2021/09/11 05:28:24;;;;;;;;;1.75;1.75;;;;;16.35;76.64;101549.75;4924450;28;45447;-74
2021/09/11 05:30:49;;;;;;;;;2.25;2.25;;;;;16.36;76.99;101553.25;4928217;28;45714;-76
2021/09/11 05:33:14;;;;;;;;;2.25;2.00;;;;;16.37;77.60;101546.91;4930142;28;45766;-79
2021/09/11 05:35:40;;;;;;;;;4.75;2.50;;;;;16.40;76.40;101557.25;4932513;28;46234;-77
2021/09/11 05:38:05;;;;;;;;;3.00;3.00;;;;;16.41;76.75;101553.56;4928874;28;45535;-75
2021/09/11 05:40:31;;;;;;;;;2.00;2.00;;;;;16.42;76.58;101558.75;4926911;28;45507;-76
2021/09/11 05:42:56;;;;;;;;;2.25;2.25;;;;;16.45;77.14;101550.41;4926085;28;45503;-75
2021/09/11 05:45:22;;;;;;;;;3.50;3.00;;;;;16.47;76.37;101551.06;4930135;28;46060;-74
2021/09/11 05:47:47;;;;;;;;;2.75;2.00;;;;;16.52;76.81;101554.06;4930234;28;45465;-73
2021/09/11 05:50:13;;;;;;;;;3.00;2.25;;;;;16.55;76.25;101553.72;4929595;28;45607;-74
2021/09/11 05:52:39;;;;;;;;;2.00;2.00;;;;;16.62;76.00;101556.56;4924749;28;46269;-75
2021/09/11 05:55:05;;;;;;;;;3.00;3.00;;;;;16.67;75.73;101561.41;4924283;28;45991;-74
2021/09/11 05:57:30;;;;;;;;;3.25;3.25;;;;;16.72;75.82;101562.53;4960819;28;45569;-74
2021/09/11 05:59:56;;;;;;;;;2.00;2.00;;;;;16.78;75.08;101563.72;4924692;28;45518;-74
2021/09/11 06:02:23;;;;;;;;;2.25;2.00;;;;;16.85;74.59;101570.06;4920901;28;52238;-74
2021/09/11 06:04:48;;;;;;;;;3.25;2.00;;;;;16.92;74.76;101579.06;4943956;28;45542;-75
2021/09/11 06:07:13;;;;;;;;;3.00;3.00;;;;;17.00;74.65;101574.69;4920844;28;45439;-74
2021/09/11 06:09:39;;;;;;;;;4.25;2.50;;;;;17.06;74.22;101580.19;4930164;28;45541;-74
2021/09/11 06:12:09;;;;;;;;;4.00;3.00;;;;;17.14;74.16;101584.69;4938601;28;46907;-74
2021/09/11 06:14:35;;;;;;;;;2.00;2.00;;;;;17.23;74.25;101594.31;4921790;28;45531;-74
2021/09/11 06:17:00;;;;;;;;;3.75;2.25;;;;;17.35;73.84;101594.78;4928297;28;45877;-74
2021/09/11 06:19:26;;;;;;;;;3.50;3.50;;;;;17.45;73.69;101597.25;4918240;28;45642;-74
2021/09/11 06:21:51;;;;;;;;;3.75;3.00;;;;;17.55;73.50;101600.53;4917349;28;45888;-73
2021/09/11 06:24:16;;;;;;;;;4.00;3.00;;;;;17.64;73.29;101602.16;4921076;28;45575;-72
2021/09/11 06:26:42;;;;;;;;;4.00;2.75;;;;;17.72;72.29;101599.44;4925554;28;45508;-74
2021/09/11 06:29:07;;;;;;;;;3.00;2.75;;;;;17.76;72.12;101600.75;4924703;28;45514;-74
2021/09/11 06:31:33;;;;;;;;;4.25;3.75;;;;;17.83;71.69;101598.25;4933821;28;46054;-79
2021/09/11 06:33:58;;;;;;;;;2.75;2.75;;;;;17.91;71.89;101608.06;4916051;28;45516;-74
2021/09/11 06:36:24;;;;;;;;;2.25;2.00;;;;;17.99;71.52;101610.69;4924992;28;45530;-79
2021/09/11 06:38:49;;;;;;;;;2.00;2.00;;;;;18.09;71.41;101621.16;4921317;28;45725;-75
2021/09/11 06:41:14;;;;;;;;;3.00;3.00;;;;;18.16;70.73;101614.91;4913437;28;45500;-76
2021/09/11 06:43:40;;;;;;;;;3.00;3.00;;;;;18.31;70.59;101608.81;4911634;28;45641;-77
2021/09/11 06:46:05;;;;;;;;;2.00;1.00;;;;;19.11;69.71;101609.09;4926934;28;45510;-81
2021/09/11 06:48:33;;;;;;;;;2.00;2.00;;;;;19.69;67.77;101608.41;4923227;28;45435;-79
2021/09/11 06:50:59;;;;;;;;;1.50;1.25;;;;;20.23;66.27;101601.72;4912824;28;46357;-80
2021/09/11 06:53:24;;;;;;;;;1.25;1.25;;;;;20.26;64.91;101596.00;4918846;28;45815;-81
2021/09/11 06:55:50;;;;;;;;;1.50;1.50;;;;;20.14;65.15;101606.41;4911512;28;45773;-81
2021/09/11 06:58:16;;;;;;;;;1.00;1.00;;;;;20.10;65.34;101600.63;4926482;28;45590;-80
2021/09/11 07:00:42;;;;;;;;;0.75;0.75;;;;;20.33;65.21;101615.69;4920746;28;47310;-83
2021/09/11 07:03:07;;;;;;;;;2.75;1.75;;;;;20.43;64.59;101610.81;4918237;28;45590;-79
2021/09/11 07:05:33;;;;;;;;;3.25;0.50;;;;;20.43;64.72;101623.41;4913823;28;45487;-73
2021/09/11 07:07:58;;;;;;;;;0.50;0.50;;;;;20.38;63.68;101616.75;4918475;28;45541;-80
2021/09/11 07:10:24;;;;;;;;;3.00;1.00;;;;;20.35;63.91;101619.00;4924064;28;45481;-80
2021/09/11 07:12:49;;;;;;;;;2.25;0.75;;;;;20.32;64.18;101624.75;4926394;28;45507;-79
2021/09/11 07:15:14;;;;;;;;;1.00;1.00;;;;;20.35;64.18;101625.22;4926603;28;45462;-79
2021/09/11 07:17:42;;;;;;;;;2.00;1.00;;;;;20.38;64.00;101622.13;4917878;28;45409;-79
2021/09/11 07:20:08;;;;;;;;;2.00;1.00;;;;;20.46;63.67;101631.09;4915455;28;45873;-79
2021/09/11 07:22:33;;;;;;;;;1.00;1.00;;;;;20.54;63.49;101628.25;4924007;28;45607;-80
2021/09/11 07:24:59;;;;;;;;;1.00;0.75;;;;;20.73;63.30;101629.47;4915249;28;45504;-79
2021/09/11 07:27:24;;;;;;;;;2.00;1.00;;;;;21.01;62.57;101622.22;4922302;28;45721;-79
2021/09/11 07:29:49;;;;;;;;;1.00;1.00;;;;;21.12;61.63;101620.03;4920008;28;56399;-79
2021/09/11 07:32:15;;;;;;;;;1.00;1.00;;;;;21.34;61.62;101615.38;4924122;28;45484;-78
2021/09/11 07:34:41;;;;;;;;;0.75;0.75;;;;;21.82;61.33;101615.41;4923108;28;47232;-79
2021/09/11 07:37:06;;;;;;;;;1.00;1.00;;;;;22.40;59.60;101626.50;4925441;28;45513;-80
2021/09/11 07:42:47;;;;;;;;;3.00;1.25;;;;;24.22;56.77;101622.06;5900060;22;46381;-79
2021/09/11 07:45:13;;;;;;;;;2.00;1.00;;;;;25.78;55.00;101624.66;5003240;22;46484;-78
2021/09/11 07:47:40;;;;;;;;;2.00;1.00;;;;;29.06;51.46;101621.44;4939861;28;47486;-79
2021/09/11 07:50:06;;;;;;;;;2.25;1.00;;;;;32.60;45.62;101616.31;4947329;28;47609;-79
2021/09/11 07:52:32;;;;;;;;;3.00;1.00;;;;;35.64;41.67;101625.50;4935583;28;45480;-81
2021/09/11 07:54:57;;;;;;;;;1.00;1.00;;;;;38.01;38.86;101633.66;4932414;28;45506;-77
2021/09/11 07:57:22;;;;;;;;;3.00;2.00;;;;;39.89;34.60;101634.97;4937349;28;45502;-75
2021/09/11 07:59:47;;;;;;;;;1.00;1.00;;;;;41.58;31.66;101636.38;4926303;28;46403;-78
2021/09/11 08:04:48;;;;;;;;;0.00;0.00;;;;;44.44;27.39;101644.69;5865954;22;44949;-74
2021/09/11 08:07:14;;;;;;;;;0.00;0.00;;;;;45.65;24.66;101645.88;4987100;22;45588;-66
2021/09/11 08:09:39;;;;;;;;;0.50;0.00;;;;;46.42;24.20;101655.28;4921359;28;45633;-66
2021/09/11 08:12:05;;;;;;;;;0.00;0.00;;;;;47.05;23.63;101654.69;4925266;28;45398;-66
2021/09/11 08:14:30;;;;;;;;;0.00;0.00;;;;;47.67;23.13;101661.94;4920738;28;45556;-66
2021/09/11 08:16:56;;;;;;;;;0.00;0.00;;;;;48.27;22.24;101667.38;4924444;28;45772;-69
2021/09/11 08:19:21;;;;;;;;;0.00;0.00;;;;;48.82;20.99;101666.66;4920837;28;46575;-67
2021/09/11 08:21:47;;;;;;;;;0.25;0.00;;;;;49.18;20.41;101676.06;4916493;28;45850;-68
2021/09/11 08:24:12;;;;;;;;;0.00;0.00;;;;;49.66;19.81;101672.31;4921521;28;45670;-68
2021/09/11 08:26:38;;;;;;;;;0.00;0.00;;;;;50.07;18.55;101670.00;4924031;28;45664;-68
2021/09/11 08:29:03;;;;;;;;;0.00;0.00;;;;;50.47;18.48;101682.09;4920622;28;46015;-69
2021/09/11 08:31:29;;;;;;;;;2.00;0.00;;;;;50.78;18.46;101678.88;4928543;28;45510;-69
2021/09/11 08:33:55;;;;;;;;;0.00;0.00;;;;;51.12;17.96;101682.81;4920344;28;45581;-68
2021/09/11 08:36:22;;;;;;;;;0.00;0.00;;;;;51.40;17.80;101673.47;4927419;28;46004;-70
2021/09/11 08:38:47;;;;;;;;;0.25;0.25;;;;;51.80;16.56;101679.72;4918229;28;47542;-70
2021/09/11 08:41:13;;;;;;;;;0.00;0.00;;;;;52.14;16.61;101679.09;4927639;28;46257;-71
2021/09/11 08:43:38;;;;;;;;;0.00;0.00;;;;;52.40;15.88;101682.53;4929543;28;45712;-71
2021/09/11 08:46:04;;;;;;;;;0.00;0.00;;;;;52.67;16.50;101671.38;4925625;28;45832;-70
2021/09/11 08:48:30;;;;;;;;;0.00;0.00;;;;;52.39;15.47;101667.63;4922946;28;47032;-70
2021/09/11 08:50:56;;;;;;;;;0.25;0.25;;;;;52.40;15.62;101676.88;4928372;28;45923;-71
2021/09/11 08:53:21;;;;;;;;;0.00;0.00;;;;;52.23;15.11;101682.25;4917143;28;45543;-69
2021/09/11 08:55:47;;;;;;;;;0.00;0.00;;;;;52.35;14.71;101677.31;4928827;28;45667;-70
2021/09/11 08:58:13;;;;;;;;;0.00;0.00;;;;;52.39;15.03;101680.94;4925717;28;46445;-72
2021/09/11 09:00:43;;;;;;;;;1.00;0.00;;;;;52.52;14.96;101667.91;4927347;28;45876;-74
2021/09/11 09:03:31;;;;;;;;;0.00;0.00;;;;;52.70;14.55;101675.38;4928836;28;45541;-74
2021/09/11 09:06:21;;;;;;;;;0.00;0.00;;;;;52.87;14.21;101680.06;4928647;28;45527;-74
2021/09/11 09:08:49;;;;;;;;;0.00;0.00;;;;;52.96;14.35;101680.38;4927821;28;46101;-74
2021/09/11 09:11:26;;;;;;;;;0.00;0.00;;;;;53.13;13.81;101669.31;4924253;28;46266;-74
2021/09/11 09:13:59;;;;;;;;;0.00;0.00;;;;;53.25;13.66;101665.94;4921219;28;45513;-74
2021/09/11 09:16:26;;;;;;;;;1.00;0.00;;;;;53.13;13.61;101672.16;4928435;28;45707;-74
2021/09/11 09:18:52;;;;;;;;;0.00;0.00;;;;;52.74;13.07;101674.16;4927004;28;46512;-74
2021/09/11 09:21:29;;;;;;;;;0.00;0.00;;;;;52.47;13.33;101668.38;4928970;28;45445;-74
2021/09/11 09:23:59;;;;;;;;;0.00;0.00;;;;;52.43;13.86;101670.44;4928803;28;45482;-73
2021/09/11 09:26:25;;;;;;;;;0.00;0.00;;;;;52.44;14.17;101663.56;4925922;28;45770;-73
2021/09/11 09:29:10;;;;;;;;;0.00;0.00;;;;;52.31;13.03;101660.44;4927641;28;45517;-72
2021/09/11 09:31:37;;;;;;;;;0.75;0.75;;;;;52.30;13.27;101658.03;4929443;28;45390;-72
2021/09/11 09:34:03;;;;;;;;;0.25;0.00;;;;;52.14;13.15;101653.75;4926744;28;45586;-72
2021/09/11 09:36:37;;;;;;;;;0.00;0.00;;;;;51.83;13.71;101659.16;4926064;28;45543;-72
2021/09/11 09:39:06;;;;;;;;;1.00;0.00;;;;;51.81;13.49;101660.78;4919047;28;46043;-73
2021/09/11 09:41:43;;;;;;;;;0.00;0.00;;;;;51.61;13.08;101658.50;4925850;28;45517;-72
2021/09/11 09:44:09;;;;;;;;;0.00;0.00;;;;;51.31;13.21;101655.41;4925540;28;49626;-72
2021/09/11 09:46:40;;;;;;;;;0.00;0.00;;;;;50.73;13.13;101660.41;4927882;28;45532;-72
2021/09/11 09:49:07;;;;;;;;;0.50;0.00;;;;;50.11;14.13;101656.78;4926286;28;47182;-71
2021/09/11 09:51:34;;;;;;;;;0.00;0.00;;;;;49.57;14.43;101658.63;4926926;28;45480;-70
2021/09/11 09:54:00;;;;;;;;;0.75;0.75;;;;;48.68;14.63;101647.72;4929048;28;45758;-70
2021/09/11 09:56:29;;;;;;;;;2.00;0.00;;;;;47.56;15.15;101645.81;4926010;28;45723;-67
2021/09/11 09:58:54;;;;;;;;;0.00;0.00;;;;;46.35;16.61;101649.63;4926670;28;46219;-67
2021/09/11 10:01:23;;;;;;;;;0.00;0.00;;;;;45.51;16.73;101653.94;4927966;28;45603;-70
2021/09/11 10:03:48;;;;;;;;;1.50;0.00;;;;;44.61;17.63;101635.97;4916615;28;46805;-69
2021/09/11 10:06:15;;;;;;;;;0.25;0.25;;;;;43.81;17.75;101637.00;4921517;28;48401;-67
2021/09/11 10:08:58;;;;;;;;;1.00;0.00;;;;;43.03;18.01;101638.22;4924513;28;46217;-68
2021/09/11 10:11:34;;;;;;;;;0.00;0.00;;;;;42.29;19.72;101638.16;4934557;28;45631;-68
2021/09/11 10:14:02;;;;;;;;;0.00;0.00;;;;;41.68;19.30;101631.22;4923341;28;45430;-68
2021/09/11 10:16:36;;;;;;;;;1.00;0.50;;;;;41.19;20.48;101643.97;4925875;28;45523;-66
2021/09/11 10:19:16;;;;;;;;;0.00;0.00;;;;;40.83;20.62;101640.59;4923818;28;46193;-66
2021/09/11 10:21:42;;;;;;;;;2.00;0.50;;;;;40.26;21.01;101640.09;4921816;28;52021;-66
2021/09/11 10:24:13;;;;;;;;;0.25;0.25;;;;;39.67;20.10;101630.38;4926078;28;45832;-68
2021/09/11 10:26:59;;;;;;;;;0.25;0.00;;;;;39.00;20.84;101631.59;4923562;28;45579;-67
2021/09/11 10:29:37;;;;;;;;;0.00;0.00;;;;;38.60;21.49;101636.25;4916632;28;47149;-67
2021/09/11 10:32:18;;;;;;;;;0.00;0.00;;;;;38.25;22.20;101634.09;4928092;28;45398;-69
2021/09/11 10:35:27;;;;;;;;;0.50;0.50;;;;;37.70;23.26;101634.34;4921565;28;45528;-67
2021/09/11 10:37:58;;;;;;;;;0.00;0.00;;;;;37.10;23.83;101632.63;4925726;28;45459;-66
2021/09/11 10:40:35;;;;;;;;;1.25;0.25;;;;;36.47;23.90;101639.56;4899751;28;46321;-74
2021/09/11 10:43:09;;;;;;;;;0.00;0.00;;;;;36.06;24.87;101640.25;4899744;28;45696;-73
2021/09/11 10:45:56;;;;;;;;;0.25;0.00;;;;;35.75;24.74;101629.72;4901548;28;45679;-73
2021/09/11 10:48:50;;;;;;;;;0.00;0.00;;;;;34.97;25.44;101625.50;4902450;28;45595;-75
2021/09/11 10:51:38;;;;;;;;;0.75;0.50;;;;;34.22;25.69;101623.22;4900059;28;46463;-74
2021/09/11 10:54:13;;;;;;;;;0.00;0.00;;;;;33.61;26.60;101621.72;4895376;28;45700;-74
2021/09/11 10:56:47;;;;;;;;;1.50;0.50;;;;;33.26;27.07;101618.03;4900174;28;45582;-73
2021/09/11 10:59:18;;;;;;;;;0.50;0.50;;;;;33.27;28.02;101619.66;4901634;28;45466;-72
2021/09/11 11:02:02;;;;;;;;;2.00;0.00;;;;;34.20;27.43;101615.28;4902608;28;47213;-74
2021/09/11 11:04:33;;;;;;;;;2.00;1.00;;;;;34.45;26.20;101616.16;4902963;28;45488;-72
2021/09/11 11:07:02;;;;;;;;;2.00;1.00;;;;;34.05;26.61;101616.19;4902207;28;45514;-73
2021/09/11 11:09:32;;;;;;;;;0.00;0.00;;;;;33.59;27.75;101616.50;4902277;28;45850;-76
2021/09/11 11:11:58;;;;;;;;;1.00;0.25;;;;;33.45;27.77;101620.94;4899852;28;47024;-74
2021/09/11 11:14:23;;;;;;;;;0.75;0.50;;;;;33.55;28.11;101628.28;4908359;28;45706;-74
2021/09/11 11:16:54;;;;;;;;;1.75;1.75;;;;;33.34;27.74;101624.84;4904349;28;45553;-74
2021/09/11 11:19:25;;;;;;;;;1.50;1.00;;;;;32.86;28.14;101622.50;4918776;28;45470;-74
2021/09/11 11:22:05;;;;;;;;;1.00;0.00;;;;;32.29;28.89;101635.44;4915291;28;47172;-73
2021/09/11 11:24:35;;;;;;;;;1.00;1.00;;;;;31.65;29.06;101628.53;4923392;28;45571;-73
2021/09/11 11:27:06;;;;;;;;;2.00;1.00;;;;;30.94;29.75;101630.94;4924690;28;45543;-73
2021/09/11 11:29:34;;;;;;;;;2.50;1.00;;;;;30.38;31.10;101620.44;4921221;28;45435;-73
2021/09/11 11:32:01;;;;;;;;;0.00;0.00;;;;;30.19;31.82;101618.09;4926183;28;46357;-74